aviador You're here:

KMCN Decoded Metar

MACON in GA, USA
Report Time2017-11-20 20:53:00
UTC Time2017-11-20 21:20:42
Flight Rules vfr VFR
Wind150° at 06 kt
W.Decomp.*RWY 13: 5.5 kt HW 2.3 kt RCW
RWY 23: 1.3 kt HW 5.8 kt LCW
W.Rank150° ranks 21
Current wind is above 150° avg. (5.3)
Visibility9999 m
Phenomena:N/A
Clouds:N/A
Expected CloudBase > 6,800 ft AGL from Temp-Dew spread
CeilingNone
Temp17°C (ISA +3)
Dew Point00°C (32% RH)
AAT12.9°C
QNH1022 hPa
Density Alt463 ft
Elevation358 ft
Report Wrong Elevation
Raw Report
METAR KMCN 202053Z 15006KT 10SM CLR 17/00 A3017 RMK AO2 SLP217 T01670000
56017=

Extra information for KMCN:More info

Metar Taf Metar & Taf Last 4 Metars F.Rules Stats Wind Profile Meteogram Temp Stats Airport Information Weather charts Add Link Nearby VenuesMetar ALERT Operation Metar Decoded Social comments

AIRNAV info for KMCN